createdAt,value
2023-01-20T00:03:46.567Z,92516.48
2023-01-20T00:08:56.184Z,92530.23
2023-01-20T00:14:04.566Z,92530.53
2023-01-20T00:19:15.567Z,92549.89
2023-01-20T00:24:23.971Z,92560.34
2023-01-20T00:29:31.171Z,92572.38
2023-01-20T00:34:38.034Z,92578.89
2023-01-20T00:39:45.147Z,92588.71
2023-01-20T00:44:52.228Z,92595.28
2023-01-20T00:49:59.081Z,92592.47
2023-01-20T00:55:06.956Z,92610.48
2023-01-20T01:00:14.497Z,92619.72
2023-01-20T01:05:21.569Z,92620.63
2023-01-20T01:10:28.850Z,92626.66
2023-01-20T01:15:36.082Z,92622.23
2023-01-20T01:20:44.587Z,92619.92
2023-01-20T01:25:51.373Z,92613.00
2023-01-20T01:31:06.564Z,92612.75
2023-01-20T01:36:17.661Z,92597.42
2023-01-20T01:41:24.825Z,92600.03
2023-01-20T01:46:31.636Z,92608.97
2023-01-20T01:51:45.875Z,92596.77
2023-01-20T01:56:54.320Z,92601.00
2023-01-20T02:02:01.235Z,92596.07
2023-01-20T02:07:16.435Z,92592.17
2023-01-20T02:12:24.852Z,92596.02
2023-01-20T02:17:36.325Z,92604.27
2023-01-20T02:23:14.647Z,92598.89
2023-01-20T02:28:34.620Z,92597.89
2023-01-20T02:33:54.410Z,92597.77
2023-01-20T02:39:27.599Z,92592.56
2023-01-20T02:44:27.215Z,92589.45
2023-01-20T02:50:00.627Z,92588.11
2023-01-20T02:55:14.927Z,92591.44
2023-01-20T03:00:29.267Z,92600.13
2023-01-20T03:05:39.458Z,92584.66
2023-01-20T03:10:48.392Z,92598.95
2023-01-20T03:16:05.293Z,92601.05
2023-01-20T03:21:13.735Z,92587.61
2023-01-20T03:26:23.826Z,92584.69
2023-01-20T03:31:47.175Z,92581.81
2023-01-20T03:36:55.772Z,92573.41
2023-01-20T03:42:18.040Z,92579.86
2023-01-20T03:47:51.457Z,92576.98
2023-01-20T03:53:29.294Z,92585.73
2023-01-20T03:58:40.931Z,92582.05
2023-01-20T04:03:51.351Z,92591.92
2023-01-20T04:09:08.103Z,92591.25
2023-01-20T04:14:14.915Z,92589.61
2023-01-20T04:19:21.587Z,92592.33
2023-01-20T04:24:38.604Z,92587.20
2023-01-20T04:29:45.272Z,92591.72
2023-01-20T04:34:54.035Z,92606.76
2023-01-20T04:40:02.382Z,92607.77
2023-01-20T04:45:10.838Z,92621.50
2023-01-20T04:50:18.154Z,92623.53
2023-01-20T04:55:26.389Z,92625.55
2023-01-20T05:00:33.088Z,92633.48
2023-01-20T05:05:39.666Z,92636.94
2023-01-20T05:10:46.365Z,92645.33
2023-01-20T05:15:53.132Z,92651.81
2023-01-20T05:20:59.731Z,92664.17
2023-01-20T05:26:06.531Z,92678.70
2023-01-20T05:31:13.282Z,92675.06
2023-01-20T05:36:19.974Z,92672.34
2023-01-20T05:41:26.654Z,92670.32
2023-01-20T05:46:33.410Z,92669.41
2023-01-20T05:51:40.154Z,92671.63
2023-01-20T05:56:48.590Z,92675.36
2023-01-20T06:01:57.330Z,92679.20
2023-01-20T06:07:04.397Z,92663.09
2023-01-20T06:12:11.451Z,92667.86
2023-01-20T06:17:18.103Z,92654.43
2023-01-20T06:22:24.802Z,92675.73
2023-01-20T06:27:31.520Z,92668.00
2023-01-20T06:32:38.256Z,92671.67
2023-01-20T06:37:45.152Z,92665.19
2023-01-20T06:42:52.019Z,92660.92
2023-01-20T06:47:58.683Z,92659.33
2023-01-20T06:53:05.372Z,92653.86
2023-01-20T06:58:12.128Z,92654.00
2023-01-20T07:03:18.872Z,92653.11
2023-01-20T07:08:25.814Z,92649.39
2023-01-20T07:13:32.510Z,92644.96
2023-01-20T07:18:39.713Z,92638.11
2023-01-20T07:23:46.504Z,92648.92
2023-01-20T07:28:53.189Z,92652.26
2023-01-20T07:34:00.694Z,92662.34
2023-01-20T07:39:07.563Z,92676.23
2023-01-20T07:44:14.343Z,92676.45
2023-01-20T07:49:21.330Z,92677.95
2023-01-20T07:54:28.232Z,92678.23
2023-01-20T07:59:35.043Z,92683.97
2023-01-20T08:04:42.372Z,92692.22
2023-01-20T08:09:50.464Z,92682.05
2023-01-20T08:14:57.313Z,92693.47
2023-01-20T08:20:05.107Z,92697.95
2023-01-20T08:25:11.798Z,92700.59
2023-01-20T08:30:18.546Z,92706.36
2023-01-20T08:35:25.884Z,92707.39
2023-01-20T08:40:34.109Z,92719.54
2023-01-20T08:45:42.776Z,92723.41
2023-01-20T08:50:49.749Z,92734.66
2023-01-20T08:55:59.460Z,92739.41
2023-01-20T09:01:12.717Z,92738.00
2023-01-20T09:06:21.420Z,92744.34
2023-01-20T09:11:28.233Z,92743.55
2023-01-20T09:16:36.273Z,92746.00
2023-01-20T09:21:43.814Z,92751.02
2023-01-20T09:26:51.559Z,92749.75
2023-01-20T09:31:58.987Z,92740.61
2023-01-20T09:37:13.733Z,92745.53
2023-01-20T09:42:57.293Z,92746.98
2023-01-20T09:48:34.526Z,92747.08
2023-01-20T09:53:51.628Z,92741.78
2023-01-20T09:59:11.803Z,92736.16
2023-01-20T10:04:32.912Z,92734.73
2023-01-20T10:10:02.126Z,92731.09
2023-01-20T10:15:16.506Z,92729.81
2023-01-20T10:20:59.658Z,92566.55
2023-01-20T10:26:16.910Z,92725.20
2023-01-20T10:31:30.836Z,92717.22
2023-01-20T10:36:39.230Z,92719.89
2023-01-20T10:41:56.373Z,92718.19
2023-01-20T10:47:14.017Z,92716.63
2023-01-20T10:52:55.065Z,92719.68
2023-01-20T10:58:26.920Z,92711.26
2023-01-20T11:03:37.499Z,92715.61
2023-01-20T11:08:45.417Z,92715.61
2023-01-20T11:13:54.391Z,92722.13
2023-01-20T11:19:06.293Z,92714.37
2023-01-20T11:24:36.969Z,92716.91
2023-01-20T11:29:48.433Z,92718.58
2023-01-20T11:34:56.976Z,92722.13
2023-01-20T11:40:08.500Z,92724.46
2023-01-20T11:45:32.849Z,92730.33
2023-01-20T11:50:53.470Z,92729.84
2023-01-20T11:56:07.315Z,92736.76
2023-01-20T12:01:26.932Z,92733.08
2023-01-20T12:06:52.665Z,92734.77
2023-01-20T12:12:33.891Z,92740.90
2023-01-20T12:18:02.620Z,92741.23
2023-01-20T12:23:28.603Z,92743.12
2023-01-20T12:28:57.886Z,92757.30
2023-01-20T12:34:20.833Z,92754.19
2023-01-20T12:40:08.762Z,92747.68
2023-01-20T12:45:29.024Z,92747.53
2023-01-20T12:51:02.167Z,92744.13
2023-01-20T12:56:34.848Z,92745.42
2023-01-20T13:01:54.868Z,92754.59
2023-01-20T13:07:31.194Z,92747.60
2023-01-20T13:13:01.777Z,92743.63
2023-01-20T13:18:53.556Z,92750.89
2023-01-20T13:24:04.094Z,92758.20
2023-01-20T13:29:23.659Z,92764.44
2023-01-20T13:34:35.766Z,92769.25
2023-01-20T13:39:46.797Z,92767.84
2023-01-20T13:45:17.483Z,92772.75
2023-01-20T13:50:35.068Z,92778.91
2023-01-20T13:55:49.309Z,92779.70
2023-01-20T14:01:12.720Z,92789.67
2023-01-20T14:06:25.959Z,92784.41
2023-01-20T14:11:35.015Z,92795.23
2023-01-20T14:16:44.588Z,92796.72
2023-01-20T14:21:55.489Z,92802.45
2023-01-20T14:27:28.654Z,92806.95
2023-01-20T14:32:37.659Z,92814.33
2023-01-20T14:37:45.052Z,92813.19
2023-01-20T14:43:01.573Z,92821.56
2023-01-20T14:48:09.309Z,92820.81
2023-01-20T14:53:16.981Z,92820.41
2023-01-20T14:58:24.695Z,92820.66
2023-01-20T15:03:33.190Z,92823.17
2023-01-20T15:08:56.979Z,92829.68
2023-01-20T15:14:11.574Z,92835.87
2023-01-20T15:19:30.825Z,92841.39
2023-01-20T15:24:41.685Z,92844.83
2023-01-20T15:30:22.016Z,92846.42
2023-01-20T15:35:28.706Z,92848.45
2023-01-20T15:40:36.378Z,92858.45
2023-01-20T15:45:42.981Z,92864.94
2023-01-20T15:50:51.017Z,92867.37
2023-01-20T15:55:57.825Z,92869.58
2023-01-20T16:01:04.590Z,92860.78
2023-01-20T16:06:19.095Z,92871.97
2023-01-20T16:11:26.152Z,92870.45
2023-01-20T16:16:34.063Z,92874.56
2023-01-20T16:21:40.882Z,92881.87
2023-01-20T16:26:49.277Z,92882.69
2023-01-20T16:31:55.985Z,92893.22
2023-01-20T16:37:02.646Z,92894.47
2023-01-20T16:42:14.528Z,92897.81
2023-01-20T16:47:21.422Z,92904.00
2023-01-20T16:52:28.322Z,92910.14
2023-01-20T16:57:35.163Z,92914.13
2023-01-20T17:02:41.984Z,92903.42
2023-01-20T17:07:50.136Z,92909.83
2023-01-20T17:12:58.671Z,92909.61
2023-01-20T17:18:05.609Z,92912.14
2023-01-20T17:23:12.853Z,92912.07
2023-01-20T17:28:19.601Z,92903.25
2023-01-20T17:33:26.367Z,92910.07
2023-01-20T17:38:36.215Z,92908.81
2023-01-20T17:43:47.578Z,92898.95
2023-01-20T17:48:54.666Z,92904.41
2023-01-20T17:54:04.055Z,92896.00
2023-01-20T17:59:11.058Z,92890.53
2023-01-20T18:04:17.758Z,92892.70
2023-01-20T18:09:24.437Z,92893.47
2023-01-20T18:14:31.219Z,92891.66
2023-01-20T18:19:37.924Z,92901.11
2023-01-20T18:24:45.241Z,92891.86
2023-01-20T18:29:51.980Z,92898.66
2023-01-20T18:34:58.862Z,92890.55
2023-01-20T18:40:06.489Z,92889.16
2023-01-20T18:45:13.245Z,92890.64
2023-01-20T18:50:20.231Z,92888.67
2023-01-20T18:55:27.056Z,92883.45
2023-01-20T19:00:33.952Z,92888.88
2023-01-20T19:05:40.682Z,92884.51
2023-01-20T19:10:47.355Z,92886.46
2023-01-20T19:15:55.254Z,92890.75
2023-01-20T19:21:11.012Z,92892.70
2023-01-20T19:26:19.383Z,92890.47
2023-01-20T19:31:26.433Z,92883.47
2023-01-20T19:36:34.067Z,92889.80
2023-01-20T19:41:40.790Z,92890.65
2023-01-20T19:46:47.954Z,92895.44
2023-01-20T19:51:54.751Z,92898.98
2023-01-20T19:57:02.764Z,92901.41
2023-01-20T20:02:11.900Z,92904.73
2023-01-20T20:07:18.941Z,92898.57
2023-01-20T20:12:27.929Z,92898.79
2023-01-20T20:17:34.693Z,92909.06
2023-01-20T20:22:41.429Z,92912.91
2023-01-20T20:27:48.138Z,92905.52
2023-01-20T20:32:55.240Z,92910.10
2023-01-20T20:38:02.046Z,92903.58
2023-01-20T20:43:08.959Z,92903.65
2023-01-20T20:48:15.747Z,92912.20
2023-01-20T20:53:22.909Z,92910.51
2023-01-20T20:58:33.024Z,92910.96
2023-01-20T21:03:39.864Z,92908.19
2023-01-20T21:08:47.139Z,92913.40
2023-01-20T21:13:55.120Z,92921.07
2023-01-20T21:19:04.144Z,92922.96
2023-01-20T21:24:12.562Z,92919.92
2023-01-20T21:29:19.491Z,92933.60
2023-01-20T21:34:26.132Z,92924.31
2023-01-20T21:39:33.301Z,92930.53
2023-01-20T21:44:41.685Z,92935.87
2023-01-20T21:50:05.907Z,92945.53
2023-01-20T21:55:20.679Z,92945.61
2023-01-20T22:00:29.127Z,92947.91
2023-01-20T22:05:37.539Z,92957.92
2023-01-20T22:10:44.253Z,92942.67
2023-01-20T22:15:51.446Z,92944.70
2023-01-20T22:21:06.982Z,92948.16
2023-01-20T22:26:14.281Z,92949.07
2023-01-20T22:31:23.429Z,92940.39
2023-01-20T22:36:30.172Z,92952.70
2023-01-20T22:41:37.036Z,92966.52
2023-01-20T22:46:43.789Z,92955.81
2023-01-20T22:51:50.546Z,92958.50
2023-01-20T22:56:57.295Z,92958.81
2023-01-20T23:02:04.482Z,92954.55
2023-01-20T23:07:11.714Z,92950.14
2023-01-20T23:12:18.764Z,92948.89
2023-01-20T23:17:26.212Z,92945.56
2023-01-20T23:22:32.972Z,92951.80
2023-01-20T23:27:39.864Z,92936.70
2023-01-20T23:32:47.103Z,92940.12
2023-01-20T23:37:53.849Z,92934.31
2023-01-20T23:43:00.634Z,92932.30
2023-01-20T23:48:08.088Z,92931.70
2023-01-20T23:53:14.880Z,92935.83
2023-01-20T23:58:21.976Z,92930.81
